Terminal Aerodrome Forecast
Issued by NWS

Home | Current Version | Previous Version | Text Only | Print | Product List | Glossary Off
Versions: 1 2 3 4 5 6 7 8 9 10 11 12 13 14 15 16 17

000
FTUS43 KMPX 252343
TAFRWF
TAF
KRWF 252343Z 2600/2624 00000KT P6SM OVC020
     FM260700 19010KT 6SM -SN BR OVC012
      TEMPO 2608/2611 4SM -FZDZ BR
     FM261100 24014G20KT 6SM BR SCT015 BKN100
     FM261700 31015G22KT P6SM BKN025=

USA.gov is the U.S. government's official web portal to all federal, state and local government web resources and services.